Terminal Aerodrome Forecast
Issued by NWS Goodland, KS

Home | Current Version | Previous Version | Text Only | Print | Product List | Glossary On
Versions: 1 2 3 4 5 6 7 8 9 10 11 12 13 14
000
FTUS43 KGLD 171120
TAFGLD
TAF
KGLD 171120Z 1712/1812 20006KT P6SM FEW130
     FM172000 22007KT P6SM VCTS FEW100CB SCT250 PROB30 1722/1802
      -TSRA SCT100CB BKN250
     FM180600 21008KT P6SM FEW110 SCT250
     FM181100 25007KT P6SM SCT200=

USA.gov is the U.S. government's official web portal to all federal, state and local government web resources and services.